Time;durP1;ratioP1;P1;durP2;ratioP2;P2;SDS_P1;SDS_P2;PMS_P1;PMS_P2;Temp;Humidity;BMP_temperature;BMP_pressure;BME280_temperature;BME280_humidity;BME280_pressure;Samples;Min_cycle;Max_cycle;Signal;HPM_P1;HPM_P2
2022/07/13 00:00:28;;;;;;;;;;;;;;;18.57;100.00;100132.72;3047986;19;1003;-48
2022/07/13 00:01:32;;;;;;;;;;;;;;;18.56;100.00;100123.75;3047831;19;1004;-48
2022/07/13 00:02:34;;;;;;;;;;;;;;;18.52;100.00;100126.91;3053036;19;1027;-49
2022/07/13 00:03:39;;;;;;;;;;;;;;;18.50;100.00;100112.69;3053087;19;1918;-49
2022/07/13 00:04:41;;;;;;;;;;;;;;;18.53;100.00;100131.31;3053812;19;1148;-49
2022/07/13 00:05:45;;;;;;;;;;;;;;;18.57;100.00;100121.91;3053392;19;1047;-49
2022/07/13 00:06:47;;;;;;;;;;;;;;;18.46;100.00;100114.88;3053103;19;924;-49
2022/07/13 00:07:52;;;;;;;;;;;;;;;18.43;100.00;100119.72;3053509;19;1064;-48
2022/07/13 00:08:53;;;;;;;;;;;;;;;18.43;100.00;100122.44;3053025;19;1849;-48
2022/07/13 00:09:58;;;;;;;;;;;;;;;18.46;100.00;100120.28;3053087;19;1023;-48
2022/07/13 00:11:00;;;;;;;;;;;;;;;18.41;100.00;100124.44;3055680;19;1022;-49
2022/07/13 00:12:05;;;;;;;;;;;;;;;18.40;100.00;100117.31;3055449;19;1275;-49
2022/07/13 00:13:06;;;;;;;;;;;;;;;18.44;100.00;100121.44;3056924;19;1106;-48
2022/07/13 00:14:11;;;;;;;;;;;;;;;18.35;100.00;100118.63;3055975;19;1172;-49
2022/07/13 00:15:13;;;;;;;;;;;;;;;18.29;100.00;100135.47;3056211;19;1236;-47
2022/07/13 00:16:18;;;;;;;;;;;;;;;18.30;100.00;100126.34;3055956;19;1361;-49
2022/07/13 00:17:20;;;;;;;;;;;;;;;18.27;100.00;100115.84;3050063;19;1068;-48
2022/07/13 00:18:24;;;;;;;;;;;;;;;18.32;100.00;100108.16;3046843;19;1362;-48
2022/07/13 00:19:26;;;;;;;;;;;;;;;18.26;100.00;100113.31;3047826;19;1406;-48
2022/07/13 00:20:31;;;;;;;;;;;;;;;18.27;100.00;100121.25;3049215;19;1036;-49
2022/07/13 00:21:34;;;;;;;;;;;;;;;18.29;100.00;100135.47;3050149;19;1158;-48
2022/07/13 00:22:39;;;;;;;;;;;;;;;18.25;100.00;100117.84;3050559;19;1717;-49
2022/07/13 00:23:42;;;;;;;;;;;;;;;18.27;100.00;100123.09;3050681;19;1060;-49
2022/07/13 00:24:47;;;;;;;;;;;;;;;18.26;100.00;100114.16;3054950;19;1118;-49
2022/07/13 00:25:48;;;;;;;;;;;;;;;18.19;100.00;100113.06;3056482;19;1127;-48
2022/07/13 00:26:53;;;;;;;;;;;;;;;18.12;100.00;100120.06;3055893;19;977;-48
2022/07/13 00:27:57;;;;;;;;;;;;;;;18.17;100.00;100119.63;3056686;19;1054;-49
2022/07/13 00:28:59;;;;;;;;;;;;;;;18.18;100.00;100116.78;3055975;19;1849;-49
2022/07/13 00:30:04;;;;;;;;;;;;;;;18.06;100.00;100120.69;3056292;19;939;-49
2022/07/13 00:31:06;;;;;;;;;;;;;;;18.12;100.00;100111.97;3056507;19;1327;-49
2022/07/13 00:32:10;;;;;;;;;;;;;;;18.04;100.00;100106.47;3055881;19;1095;-48
2022/07/13 00:33:15;;;;;;;;;;;;;;;17.92;100.00;100100.44;3055246;19;1149;-48
2022/07/13 00:34:17;;;;;;;;;;;;;;;17.94;100.00;100121.91;3055434;19;1324;-48
2022/07/13 00:35:21;;;;;;;;;;;;;;;17.99;100.00;100106.09;3055585;19;1673;-48
2022/07/13 00:36:23;;;;;;;;;;;;;;;18.10;100.00;100103.19;3056373;19;869;-49
2022/07/13 00:37:28;;;;;;;;;;;;;;;18.09;100.00;100101.50;3055664;19;1036;-48
2022/07/13 00:38:32;;;;;;;;;;;;;;;18.06;100.00;100118.00;3056268;19;933;-49
2022/07/13 00:39:34;;;;;;;;;;;;;;;18.02;100.00;100100.38;3051804;19;1125;-49
2022/07/13 00:40:38;;;;;;;;;;;;;;;18.03;100.00;100106.63;3047733;19;1154;-49
2022/07/13 00:41:47;;;;;;;;;;;;;;;18.07;100.00;100097.22;3047711;19;1439;-49
2022/07/13 00:42:52;;;;;;;;;;;;;;;18.03;100.00;100112.88;3049367;19;1070;-49
2022/07/13 00:44:05;;;;;;;;;;;;;;;18.06;100.00;100107.19;3048870;19;1210;-48
2022/07/13 00:45:09;;;;;;;;;;;;;;;18.12;100.00;100100.31;3049225;19;1100;-49
2022/07/13 00:46:11;;;;;;;;;;;;;;;18.13;100.00;100093.91;3050565;19;1011;-48
2022/07/13 00:47:16;;;;;;;;;;;;;;;18.07;100.00;100138.59;3055174;19;909;-48
2022/07/13 00:48:18;;;;;;;;;;;;;;;18.01;100.00;100104.06;3054960;19;1452;-49
2022/07/13 00:49:23;;;;;;;;;;;;;;;17.95;100.00;100093.91;3054642;19;1845;-48
2022/07/13 00:50:25;;;;;;;;;;;;;;;17.93;100.00;100085.09;3054112;19;1183;-49
2022/07/13 00:51:30;;;;;;;;;;;;;;;17.94;100.00;100097.59;3054671;19;1169;-49
2022/07/13 00:52:32;;;;;;;;;;;;;;;17.99;100.00;100103.41;3055246;19;1322;-48
2022/07/13 00:53:37;;;;;;;;;;;;;;;17.98;100.00;100093.59;3054550;19;1077;-48
2022/07/13 00:54:40;;;;;;;;;;;;;;;18.01;100.00;100098.69;3054929;19;1213;-48
2022/07/13 00:55:45;;;;;;;;;;;;;;;18.08;100.00;100085.44;3055131;19;1203;-48
2022/07/13 00:56:47;;;;;;;;;;;;;;;18.08;100.00;100089.00;3056565;19;870;-48
2022/07/13 00:57:52;;;;;;;;;;;;;;;18.07;100.00;100087.28;3055272;19;1300;-49
2022/07/13 00:58:53;;;;;;;;;;;;;;;18.03;100.00;100090.44;3055105;19;1139;-48
2022/07/13 00:59:58;;;;;;;;;;;;;;;17.93;100.00;100090.50;3054936;19;900;-49
2022/07/13 01:01:00;;;;;;;;;;;;;;;17.92;100.00;100088.78;3056041;19;1046;-48
2022/07/13 01:02:05;;;;;;;;;;;;;;;17.99;100.00;100087.22;3049618;19;857;-48
2022/07/13 01:03:07;;;;;;;;;;;;;;;18.00;100.00;100087.03;3047171;19;1203;-48
2022/07/13 01:04:11;;;;;;;;;;;;;;;18.03;100.00;100085.88;3047280;19;1098;-48
2022/07/13 01:05:17;;;;;;;;;;;;;;;18.06;100.00;100088.28;3049064;19;869;-49
2022/07/13 01:06:18;;;;;;;;;;;;;;;18.02;100.00;100084.19;3050339;19;923;-48
2022/07/13 01:07:23;;;;;;;;;;;;;;;18.02;100.00;100078.78;3049067;19;1219;-49
2022/07/13 01:08:25;;;;;;;;;;;;;;;17.98;100.00;100093.59;3049215;19;948;-48
2022/07/13 01:09:29;;;;;;;;;;;;;;;17.74;100.00;100058.22;3054569;19;1849;-49
2022/07/13 01:10:31;;;;;;;;;;;;;;;17.90;100.00;100085.38;3054720;19;1200;-49
2022/07/13 01:11:36;;;;;;;;;;;;;;;17.98;100.00;100072.00;3055235;19;982;-48
2022/07/13 01:12:38;;;;;;;;;;;;;;;17.94;100.00;100081.41;3054579;19;1627;-48
2022/07/13 01:13:43;;;;;;;;;;;;;;;17.85;100.00;100071.50;3055578;19;968;-48
2022/07/13 01:14:44;;;;;;;;;;;;;;;17.78;100.00;100076.66;3055467;19;988;-48
2022/07/13 01:15:49;;;;;;;;;;;;;;;17.83;100.00;100062.72;3054435;19;929;-49
2022/07/13 01:16:51;;;;;;;;;;;;;;;17.88;100.00;100074.75;3054406;19;1003;-48
2022/07/13 01:17:55;;;;;;;;;;;;;;;17.85;100.00;100066.97;3055001;19;1465;-48
2022/07/13 01:18:57;;;;;;;;;;;;;;;17.73;100.00;100081.66;3054177;19;1085;-49
2022/07/13 01:20:02;;;;;;;;;;;;;;;17.77;100.00;100063.31;3054572;19;1109;-49
2022/07/13 01:21:05;;;;;;;;;;;;;;;17.81;100.00;100062.00;3054458;19;1304;-48
2022/07/13 01:22:09;;;;;;;;;;;;;;;17.81;100.00;100068.25;3054418;19;1143;-50
2022/07/13 01:23:12;;;;;;;;;;;;;;;17.88;100.00;100055.84;3054668;19;957;-51
2022/07/13 01:24:16;;;;;;;;;;;;;;;17.88;100.00;100055.84;3049778;19;1091;-49
2022/07/13 01:25:18;;;;;;;;;;;;;;;17.84;100.00;100053.63;3046745;19;932;-48
2022/07/13 01:26:23;;;;;;;;;;;;;;;17.79;100.00;100061.31;3046970;19;1468;-49
2022/07/13 01:27:25;;;;;;;;;;;;;;;17.85;100.00;100053.47;3047054;19;1479;-48
2022/07/13 01:28:29;;;;;;;;;;;;;;;17.85;100.00;100055.31;3048916;19;1417;-48
2022/07/13 01:29:31;;;;;;;;;;;;;;;17.83;100.00;100054.63;3048938;19;1002;-48
2022/07/13 01:30:36;;;;;;;;;;;;;;;17.84;100.00;100048.22;3047742;19;1853;-49
2022/07/13 01:31:39;;;;;;;;;;;;;;;17.77;100.00;100042.56;3053198;19;1731;-49
2022/07/13 01:32:50;;;;;;;;;;;;;;;17.79;100.00;100045.09;3055535;19;940;-49
2022/07/13 01:33:53;;;;;;;;;;;;;;;17.78;100.00;100048.81;3054772;19;1017;-49
2022/07/13 01:34:58;;;;;;;;;;;;;;;17.69;100.00;100055.13;3054825;19;1067;-49
2022/07/13 01:36:00;;;;;;;;;;;;;;;17.72;100.00;100050.28;3054351;19;1104;-49
2022/07/13 01:37:04;;;;;;;;;;;;;;;17.76;100.00;100040.84;3054415;19;1600;-48
2022/07/13 01:38:06;;;;;;;;;;;;;;;17.76;100.00;100031.91;3053587;19;1413;-48
2022/07/13 01:39:11;;;;;;;;;;;;;;;17.78;100.00;100048.81;3055141;19;1275;-48
2022/07/13 01:40:14;;;;;;;;;;;;;;;17.70;100.00;100044.19;3054267;19;930;-49
2022/07/13 01:41:18;;;;;;;;;;;;;;;17.72;100.00;100034.09;3054828;19;892;-49
2022/07/13 01:42:22;;;;;;;;;;;;;;;17.69;100.00;100038.94;3054197;19;917;-49
2022/07/13 01:43:27;;;;;;;;;;;;;;;17.67;100.00;100040.91;3054035;19;1107;-49
2022/07/13 01:44:29;;;;;;;;;;;;;;;17.67;100.00;100040.91;3054227;19;1104;-48
2022/07/13 01:45:33;;;;;;;;;;;;;;;17.66;100.00;100037.38;3054074;19;977;-50
2022/07/13 01:46:36;;;;;;;;;;;;;;;17.64;100.00;100026.72;3049033;19;1367;-49
2022/07/13 01:47:43;;;;;;;;;;;;;;;17.50;100.00;100037.16;3045669;19;979;-48
2022/07/13 01:48:47;;;;;;;;;;;;;;;17.45;100.00;100047.53;3046164;19;1077;-48
2022/07/13 01:49:54;;;;;;;;;;;;;;;17.44;100.00;100052.09;3047027;19;1733;-48
2022/07/13 01:50:56;;;;;;;;;;;;;;;17.50;100.00;100040.72;3048349;19;1887;-48
2022/07/13 01:52:00;;;;;;;;;;;;;;;17.42;100.00;100037.03;3048426;19;1096;-48
2022/07/13 01:53:02;;;;;;;;;;;;;;;17.40;100.00;100034.50;3048880;19;1132;-48
2022/07/13 01:54:07;;;;;;;;;;;;;;;17.50;100.00;100029.91;3052579;19;824;-49
2022/07/13 01:55:09;;;;;;;;;;;;;;;17.59;100.00;100034.41;3053275;19;981;-49
2022/07/13 01:56:16;;;;;;;;;;;;;;;17.53;100.00;100023.34;3053508;19;1205;-48
2022/07/13 01:57:18;;;;;;;;;;;;;;;17.55;100.00;100014.13;3054324;19;1008;-48
2022/07/13 01:58:22;;;;;;;;;;;;;;;17.49;100.00;100030.06;3053979;19;1020;-48
2022/07/13 01:59:24;;;;;;;;;;;;;;;17.48;100.00;100036.47;3054193;19;1476;-49
2022/07/13 02:00:29;;;;;;;;;;;;;;;17.50;100.00;100012.88;3052820;19;1004;-49
2022/07/13 02:01:31;;;;;;;;;;;;;;;17.50;100.00;100019.13;3054241;19;1024;-49
2022/07/13 02:02:36;;;;;;;;;;;;;;;17.49;100.00;100003.94;3053511;19;978;-49
2022/07/13 02:03:39;;;;;;;;;;;;;;;17.57;100.00;100016.66;3054288;19;1200;-49
2022/07/13 02:04:43;;;;;;;;;;;;;;;17.54;100.00;100015.09;3053432;19;1832;-49
2022/07/13 02:05:47;;;;;;;;;;;;;;;17.51;100.00;100025.38;3053834;19;1005;-48
2022/07/13 02:06:52;;;;;;;;;;;;;;;17.47;100.00;100023.97;3054011;19;1013;-49
2022/07/13 02:07:54;;;;;;;;;;;;;;;17.41;100.00;100009.22;3054027;19;1160;-49
2022/07/13 02:09:01;;;;;;;;;;;;;;;17.44;100.00;100014.31;3049046;19;1148;-49
2022/07/13 02:10:04;;;;;;;;;;;;;;;17.48;100.00;100020.28;3045908;19;1319;-48
2022/07/13 02:11:09;;;;;;;;;;;;;;;17.47;100.00;100000.53;3044603;19;1853;-49
2022/07/13 02:12:11;;;;;;;;;;;;;;;17.55;100.00;100022.22;3046972;19;957;-49
2022/07/13 02:13:15;;;;;;;;;;;;;;;17.45;100.00;100021.41;3049603;19;1116;-49
2022/07/13 02:14:17;;;;;;;;;;;;;;;17.37;100.00;100006.97;3049887;19;912;-49
2022/07/13 02:15:21;;;;;;;;;;;;;;;17.42;100.00;99999.28;3048418;19;1602;-49
2022/07/13 02:16:23;;;;;;;;;;;;;;;17.30;100.00;99995.94;3052581;19;914;-49
2022/07/13 02:17:29;;;;;;;;;;;;;;;17.40;100.00;100007.50;3053736;19;968;-49
2022/07/13 02:18:31;;;;;;;;;;;;;;;17.43;100.00;100015.31;3053525;19;1691;-48
2022/07/13 02:19:38;;;;;;;;;;;;;;;17.56;100.00;100006.88;3053836;19;968;-48
2022/07/13 02:20:41;;;;;;;;;;;;;;;17.55;100.00;100000.63;3054003;19;1420;-48
2022/07/13 02:21:46;;;;;;;;;;;;;;;17.57;100.00;100025.59;3053282;19;1061;-48
2022/07/13 02:22:49;;;;;;;;;;;;;;;17.48;100.00;100010.34;3053395;19;1116;-49
2022/07/13 02:23:54;;;;;;;;;;;;;;;17.39;100.00;100005.81;3054024;19;912;-48
2022/07/13 02:24:59;;;;;;;;;;;;;;;17.50;100.00;100013.72;3054311;19;963;-49
2022/07/13 02:26:03;;;;;;;;;;;;;;;17.48;100.00;100010.34;3053308;19;1044;-49
2022/07/13 02:27:05;;;;;;;;;;;;;;;17.52;100.00;100006.31;3053823;19;928;-49
2022/07/13 02:28:09;;;;;;;;;;;;;;;17.54;100.00;100016.94;3053581;19;1006;-49
2022/07/13 02:29:11;;;;;;;;;;;;;;;17.50;100.00;100002.94;3054060;19;1233;-49
2022/07/13 02:30:16;;;;;;;;;;;;;;;17.53;100.00;100013.41;3053056;19;1096;-48
2022/07/13 02:31:19;;;;;;;;;;;;;;;17.62;100.00;100015.22;3047773;19;1839;-48
2022/07/13 02:32:23;;;;;;;;;;;;;;;17.59;100.00;100011.97;3046190;19;971;-48
2022/07/13 02:33:25;;;;;;;;;;;;;;;17.60;100.00;100013.66;3044010;19;1107;-48
2022/07/13 02:34:30;;;;;;;;;;;;;;;17.58;100.00;100018.38;3046445;19;973;-49
2022/07/13 02:35:32;;;;;;;;;;;;;;;17.66;100.00;100023.03;3048370;19;1143;-48
2022/07/13 02:36:36;;;;;;;;;;;;;;;17.68;100.00;100016.47;3047957;19;1056;-48
2022/07/13 02:37:38;;;;;;;;;;;;;;;17.64;100.00;100015.94;3048448;19;1201;-49
2022/07/13 02:38:43;;;;;;;;;;;;;;;17.66;100.00;100037.38;3051229;19;1326;-49
2022/07/13 02:39:45;;;;;;;;;;;;;;;17.68;100.00;100021.03;3053787;19;1032;-48
2022/07/13 02:40:49;;;;;;;;;;;;;;;17.75;100.00;100016.75;3052958;19;1599;-49
2022/07/13 02:41:53;;;;;;;;;;;;;;;17.73;100.00;100013.34;3053451;19;1009;-50
2022/07/13 02:42:57;;;;;;;;;;;;;;;17.70;100.00;100021.72;3054280;19;1092;-49
2022/07/13 02:43:59;;;;;;;;;;;;;;;17.69;100.00;100028.13;3053499;19;1117;-49
2022/07/13 02:45:04;;;;;;;;;;;;;;;17.80;100.00;100019.81;3053622;19;1175;-49
2022/07/13 02:46:08;;;;;;;;;;;;;;;17.84;100.00;100016.69;3052608;19;1080;-48
2022/07/13 02:47:10;;;;;;;;;;;;;;;17.79;100.00;100020.81;3053826;19;1143;-49
2022/07/13 02:48:15;;;;;;;;;;;;;;;17.77;100.00;100012.03;3053528;19;1037;-48
2022/07/13 02:49:17;;;;;;;;;;;;;;;17.80;100.00;100022.50;3053872;19;1317;-48
2022/07/13 02:50:22;;;;;;;;;;;;;;;17.82;100.00;100026.78;3052986;19;1271;-48
2022/07/13 02:51:24;;;;;;;;;;;;;;;17.78;100.00;100017.28;3053231;19;1857;-49
2022/07/13 02:52:28;;;;;;;;;;;;;;;17.77;100.00;100015.56;3053578;19;1217;-49
2022/07/13 02:53:33;;;;;;;;;;;;;;;17.72;100.00;100020.59;3049884;19;1555;-48
2022/07/13 02:54:35;;;;;;;;;;;;;;;17.72;100.00;100019.75;3044705;19;922;-49
2022/07/13 02:55:39;;;;;;;;;;;;;;;17.77;100.00;100018.28;3044997;19;1127;-48
2022/07/13 02:56:41;;;;;;;;;;;;;;;17.77;100.00;100020.13;3045775;19;908;-49
2022/07/13 02:57:46;;;;;;;;;;;;;;;17.75;100.00;100016.75;3046595;19;1828;-49
2022/07/13 02:58:47;;;;;;;;;;;;;;;17.76;100.00;100018.41;3047186;19;969;-49
2022/07/13 02:59:52;;;;;;;;;;;;;;;17.68;100.00;100003.00;3047646;19;1401;-49
2022/07/13 03:00:54;;;;;;;;;;;;;;;17.62;100.00;100027.88;3051849;19;1208;-49
2022/07/13 03:01:59;;;;;;;;;;;;;;;17.62;100.00;100025.16;3053631;19;1062;-49
2022/07/13 03:03:01;;;;;;;;;;;;;;;17.66;100.00;100006.84;3052967;19;1095;-49
2022/07/13 03:04:07;;;;;;;;;;;;;;;17.75;100.00;100011.34;3052706;19;1186;-49
2022/07/13 03:05:10;;;;;;;;;;;;;;;17.80;100.00;100014.41;3053114;19;960;-48
2022/07/13 03:06:15;;;;;;;;;;;;;;;17.73;100.00;100018.75;3053384;19;930;-48
2022/07/13 03:07:17;;;;;;;;;;;;;;;17.77;100.00;100014.72;3053406;19;947;-48
2022/07/13 03:08:22;;;;;;;;;;;;;;;17.82;100.00;100015.13;3053444;19;953;-48
2022/07/13 03:09:24;;;;;;;;;;;;;;;17.82;100.00;100012.41;3052772;19;946;-49
2022/07/13 03:10:29;;;;;;;;;;;;;;;17.78;100.00;100014.56;3053182;19;1170;-48
2022/07/13 03:11:33;;;;;;;;;;;;;;;17.68;100.00;100010.25;3052780;19;1856;-48
2022/07/13 03:12:37;;;;;;;;;;;;;;;17.77;100.00;100014.72;3053062;19;1331;-49
2022/07/13 03:13:40;;;;;;;;;;;;;;;17.74;100.00;100012.34;3053189;19;1178;-48
2022/07/13 03:14:45;;;;;;;;;;;;;;;17.87;100.00;100023.63;3052947;19;988;-48
2022/07/13 03:15:47;;;;;;;;;;;;;;;17.80;100.00;100015.28;3050363;19;1078;-49
2022/07/13 03:16:52;;;;;;;;;;;;;;;17.83;100.00;99997.94;3044511;19;1461;-48
2022/07/13 03:17:54;;;;;;;;;;;;;;;17.94;100.00;100003.09;3044780;19;1035;-48
2022/07/13 03:18:59;;;;;;;;;;;;;;;17.97;100.00;100011.75;3044679;19;1253;-49
2022/07/13 03:20:02;;;;;;;;;;;;;;;17.97;100.00;100011.75;3047579;19;1127;-49
2022/07/13 03:21:09;;;;;;;;;;;;;;;18.00;100.00;100002.47;3047202;19;952;-48
2022/07/13 03:22:11;;;;;;;;;;;;;;;18.05;100.00;100021.78;3047813;19;883;-48
2022/07/13 03:23:15;;;;;;;;;;;;;;;18.11;100.00;100023.88;3050522;19;1000;-49
2022/07/13 03:24:17;;;;;;;;;;;;;;;18.08;100.00;100034.97;3052800;19;996;-49
2022/07/13 03:25:21;;;;;;;;;;;;;;;18.12;100.00;100014.75;3051481;19;1962;-49
2022/07/13 03:26:28;;;;;;;;;;;;;;;18.16;100.00;100010.75;3052705;19;1092;-48
2022/07/13 03:27:32;;;;;;;;;;;;;;;18.12;100.00;100025.53;3052992;19;1652;-49
2022/07/13 03:28:34;;;;;;;;;;;;;;;18.13;100.00;100032.66;3053179;19;947;-49
2022/07/13 03:29:39;;;;;;;;;;;;;;;18.16;100.00;100028.78;3053076;19;1153;-49
2022/07/13 03:30:42;;;;;;;;;;;;;;;18.14;100.00;100028.94;3052964;19;1706;-48
2022/07/13 03:31:46;;;;;;;;;;;;;;;18.14;100.00;100033.50;3052703;19;1861;-50
2022/07/13 03:32:48;;;;;;;;;;;;;;;18.11;100.00;100026.56;3053774;19;1146;-48
2022/07/13 03:33:54;;;;;;;;;;;;;;;18.21;100.00;100029.19;3052982;19;1067;-49
2022/07/13 03:34:59;;;;;;;;;;;;;;;18.16;100.00;100032.34;3052955;19;1395;-49
2022/07/13 03:36:02;;;;;;;;;;;;;;;18.07;100.00;100044.09;3052492;19;1259;-48
2022/07/13 03:37:07;;;;;;;;;;;;;;;17.98;100.00;100023.41;3052850;19;1185;-51
2022/07/13 03:38:11;;;;;;;;;;;;;;;18.07;100.00;100022.47;3049677;19;1014;-48
2022/07/13 03:39:15;;;;;;;;;;;;;;;18.10;100.00;100029.44;3044837;19;1060;-48
2022/07/13 03:40:17;;;;;;;;;;;;;;;18.18;100.00;100034.91;3044748;19;1033;-49
2022/07/13 03:41:24;;;;;;;;;;;;;;;18.25;100.00;100026.00;3045003;19;1023;-49
2022/07/13 03:42:26;;;;;;;;;;;;;;;18.22;100.00;100031.75;3047224;19;1229;-49
2022/07/13 03:43:31;;;;;;;;;;;;;;;18.15;100.00;100025.25;3046471;19;1149;-49
2022/07/13 03:44:33;;;;;;;;;;;;;;;18.26;100.00;100035.81;3046972;19;956;-49
2022/07/13 03:45:38;;;;;;;;;;;;;;;18.22;100.00;100031.75;3051893;19;1383;-49
2022/07/13 03:46:40;;;;;;;;;;;;;;;18.26;100.00;100027.72;3054214;19;1054;-49
2022/07/13 03:47:45;;;;;;;;;;;;;;;18.29;100.00;100038.22;3055680;19;1022;-48
2022/07/13 03:48:47;;;;;;;;;;;;;;;18.25;100.00;100042.22;3055651;19;1066;-48
2022/07/13 03:49:52;;;;;;;;;;;;;;;18.25;100.00;100041.38;3055568;19;1032;-48
2022/07/13 03:50:54;;;;;;;;;;;;;;;18.36;100.00;100028.47;3055899;19;1003;-49
2022/07/13 03:51:59;;;;;;;;;;;;;;;18.44;100.00;100051.19;3055637;19;1848;-49
2022/07/13 03:53:01;;;;;;;;;;;;;;;18.49;100.00;100048.84;3054985;19;1140;-48
2022/07/13 03:54:06;;;;;;;;;;;;;;;18.59;100.00;100039.69;3056021;19;1349;-48
2022/07/13 03:55:08;;;;;;;;;;;;;;;18.64;100.00;100047.31;3055919;19;1108;-49
2022/07/13 03:56:14;;;;;;;;;;;;;;;18.61;100.00;100053.03;3055605;19;1075;-49
2022/07/13 03:57:16;;;;;;;;;;;;;;;18.59;100.00;100044.25;3055536;19;1690;-48
2022/07/13 03:58:20;;;;;;;;;;;;;;;18.46;100.00;100052.72;3055576;19;997;-49
2022/07/13 03:59:23;;;;;;;;;;;;;;;18.45;100.00;100061.84;3055523;19;1157;-49
2022/07/13 04:00:28;;;;;;;;;;;;;;;18.44;100.00;100053.88;3053284;19;1230;-48
2022/07/13 04:01:30;;;;;;;;;;;;;;;18.45;100.00;100052.88;3047065;19;1340;-49
2022/07/13 04:02:35;;;;;;;;;;;;;;;18.41;100.00;100051.47;3047420;19;1484;-49
2022/07/13 04:03:37;;;;;;;;;;;;;;;18.50;100.00;100054.09;3047187;19;1247;-49
2022/07/13 04:04:42;;;;;;;;;;;;;;;18.34;100.00;100062.06;3051286;19;1827;-48
2022/07/13 04:05:44;;;;;;;;;;;;;;;18.54;100.00;100051.94;3049669;19;1171;-49
2022/07/13 04:06:48;;;;;;;;;;;;;;;18.70;100.00;100054.81;3050298;19;1170;-49
2022/07/13 04:07:50;;;;;;;;;;;;;;;18.80;100.00;100063.69;3052004;19;1145;-49
2022/07/13 04:08:55;;;;;;;;;;;;;;;18.66;100.00;100054.28;3055586;19;1062;-48
2022/07/13 04:09:57;;;;;;;;;;;;;;;18.67;100.00;100057.81;3055638;19;1114;-48
2022/07/13 04:11:02;;;;;;;;;;;;;;;18.71;100.00;100064.63;3055735;19;1103;-48
2022/07/13 04:12:04;;;;;;;;;;;;;;;18.63;100.00;100062.69;3055800;19;1196;-49
2022/07/13 04:13:09;;;;;;;;;;;;;;;18.68;100.00;100070.34;3054436;19;2164;-48
2022/07/13 04:14:13;;;;;;;;;;;;;;;18.57;100.00;100063.28;3055640;19;1149;-49
2022/07/13 04:15:18;;;;;;;;;;;;;;;18.64;100.00;100058.13;3055040;19;1418;-49
2022/07/13 04:16:20;;;;;;;;;;;;;;;18.64;100.00;100063.53;3055510;19;1171;-49
2022/07/13 04:17:25;;;;;;;;;;;;;;;18.60;100.00;100075.66;3055229;19;1694;-49
2022/07/13 04:18:26;;;;;;;;;;;;;;;18.58;100.00;100070.44;3056120;19;1212;-48
2022/07/13 04:19:31;;;;;;;;;;;;;;;18.57;100.00;100070.56;3055060;19;1764;-49
2022/07/13 04:20:33;;;;;;;;;;;;;;;18.59;100.00;100082.09;3053380;19;1662;-48
2022/07/13 04:21:38;;;;;;;;;;;;;;;18.48;100.00;100042.59;3055682;19;1635;-49
2022/07/13 04:22:39;;;;;;;;;;;;;;;18.50;100.00;100072.16;3055278;19;1146;-48
2022/07/13 04:23:44;;;;;;;;;;;;;;;18.55;100.00;100070.72;3046352;19;1786;-48
2022/07/13 04:24:47;;;;;;;;;;;;;;;18.64;100.00;100074.34;3045845;19;1457;-49
2022/07/13 04:25:51;;;;;;;;;;;;;;;18.63;100.00;100067.25;3045594;19;1007;-49
2022/07/13 04:26:53;;;;;;;;;;;;;;;18.68;100.00;100075.75;3050084;19;1351;-48
2022/07/13 04:27:57;;;;;;;;;;;;;;;18.71;100.00;100067.34;3048592;19;1754;-49
2022/07/13 04:28:59;;;;;;;;;;;;;;;18.78;100.00;100067.53;3050035;19;934;-49
2022/07/13 04:30:05;;;;;;;;;;;;;;;18.72;100.00;100074.41;3050422;19;970;-49
2022/07/13 04:31:08;;;;;;;;;;;;;;;18.64;100.00;100079.75;3055315;19;1367;-49
2022/07/13 04:32:15;;;;;;;;;;;;;;;18.72;100.00;100073.59;3055253;19;1242;-49
2022/07/13 04:33:17;;;;;;;;;;;;;;;18.76;100.00;100064.13;3054720;19;1867;-48
2022/07/13 04:34:22;;;;;;;;;;;;;;;18.75;100.00;100076.81;3054827;19;1073;-48
2022/07/13 04:35:24;;;;;;;;;;;;;;;18.78;100.00;100081.06;3055286;19;1225;-48
2022/07/13 04:36:30;;;;;;;;;;;;;;;18.80;100.00;100074.50;3054832;19;981;-49
2022/07/13 04:37:34;;;;;;;;;;;;;;;18.77;100.00;100080.22;3055399;19;992;-48
2022/07/13 04:38:40;;;;;;;;;;;;;;;18.77;100.00;100072.09;3055151;19;902;-48
2022/07/13 04:39:42;;;;;;;;;;;;;;;18.72;100.00;100065.47;3055746;19;891;-48
2022/07/13 04:40:48;;;;;;;;;;;;;;;18.77;100.00;100077.50;3054854;19;1150;-48
2022/07/13 04:41:52;;;;;;;;;;;;;;;18.78;100.00;100060.28;3054751;19;1101;-48
2022/07/13 04:42:54;;;;;;;;;;;;;;;18.88;100.00;100071.84;3054473;19;990;-48
2022/07/13 04:43:59;;;;;;;;;;;;;;;18.86;100.00;100081.09;3054287;19;1316;-48
2022/07/13 04:45:01;;;;;;;;;;;;;;;18.83;100.00;100063.38;3054552;19;1880;-49
2022/07/13 04:46:06;;;;;;;;;;;;;;;18.88;100.00;100071.00;3045678;19;1463;-49
2022/07/13 04:47:08;;;;;;;;;;;;;;;18.87;100.00;100075.53;3046872;19;1501;-48
2022/07/13 04:48:13;;;;;;;;;;;;;;;18.93;100.00;100069.53;3047121;19;1116;-49
2022/07/13 04:49:19;;;;;;;;;;;;;;;18.94;100.00;100082.03;3049966;19;1227;-49
2022/07/13 04:50:23;;;;;;;;;;;;;;;18.96;100.00;100084.56;3048991;19;1484;-51
2022/07/13 04:51:25;;;;;;;;;;;;;;;18.91;100.00;100090.47;3050108;19;940;-49
2022/07/13 04:52:30;;;;;;;;;;;;;;;18.91;100.00;100079.66;3049307;19;1449;-49
2022/07/13 04:53:32;;;;;;;;;;;;;;;19.00;100.00;100077.84;3053685;19;1838;-50
2022/07/13 04:54:36;;;;;;;;;;;;;;;18.95;100.00;100078.34;3054765;19;1306;-48
2022/07/13 04:55:41;;;;;;;;;;;;;;;18.97;100.00;100097.06;2992917;19;12351;-49
2022/07/13 04:56:43;;;;;;;;;;;;;;;18.92;100.00;100084.06;3050914;19;1473;-49
2022/07/13 04:57:47;;;;;;;;;;;;;;;18.91;100.00;100071.53;3051784;19;1762;-48
2022/07/13 04:58:49;;;;;;;;;;;;;;;18.95;100.00;100078.34;3053266;19;1464;-48
2022/07/13 04:59:54;;;;;;;;;;;;;;;18.79;100.00;100094.41;3052561;19;1152;-49
2022/07/13 05:00:55;;;;;;;;;;;;;;;18.68;100.00;100091.97;3054311;19;1267;-48
2022/07/13 05:02:20;;;;;;;;;;;;;;;18.50;100.00;100072.16;3054769;19;1083;-48
2022/07/13 05:03:24;;;;;;;;;;;;;;;18.63;100.00;100076.19;3046010;19;1621;-49
2022/07/13 05:04:27;;;;;;;;;;;;;;;18.65;100.00;100076.06;3047712;19;1421;-49
2022/07/13 05:05:32;;;;;;;;;;;;;;;18.68;100.00;100076.59;3045912;19;1433;-48
2022/07/13 05:06:34;;;;;;;;;;;;;;;18.71;100.00;100080.84;3046587;19;1322;-49
2022/07/13 05:07:40;;;;;;;;;;;;;;;18.69;100.00;100086.41;3045332;19;1609;-49
2022/07/13 05:08:44;;;;;;;;;;;;;;;18.76;100.00;100088.47;3040284;19;1375;-49
2022/07/13 05:09:48;;;;;;;;;;;;;;;18.78;100.00;100092.72;3044219;19;1348;-49
2022/07/13 05:10:50;;;;;;;;;;;;;;;18.70;100.00;100089.97;3045216;19;2174;-48
2022/07/13 05:11:55;;;;;;;;;;;;;;;18.79;100.00;100107.94;3045834;19;1320;-49
2022/07/13 05:13:00;;;;;;;;;;;;;;;18.89;100.00;100099.72;3047859;19;1495;-48
2022/07/13 05:14:26;;;;;;;;;;;;;;;18.93;100.00;100090.31;3048867;19;1338;-49
2022/07/13 05:15:29;;;;;;;;;;;;;;;19.02;100.00;100098.31;3053488;19;1230;-48
2022/07/13 05:16:41;;;;;;;;;;;;;;;19.09;100.00;100101.22;3054671;19;1075;-48
2022/07/13 05:17:43;;;;;;;;;;;;;;;19.15;100.00;100103.31;3054962;19;1049;-49
2022/07/13 05:18:47;;;;;;;;;;;;;;;19.19;100.00;100095.72;3054543;19;1137;-48
2022/07/13 05:19:53;;;;;;;;;;;;;;;19.23;100.00;100099.78;3054873;19;1170;-48
2022/07/13 05:20:57;;;;;;;;;;;;;;;19.26;100.00;100096.78;3053372;19;1858;-49
2022/07/13 05:21:59;;;;;;;;;;;;;;;19.29;100.00;100096.47;3054331;19;1154;-48
2022/07/13 05:23:04;;;;;;;;;;;;;;;19.29;100.00;100089.19;3051698;19;1216;-48
2022/07/13 05:24:08;;;;;;;;;;;;;;;19.31;100.00;100097.16;3054655;19;885;-47
2022/07/13 05:25:14;;;;;;;;;;;;;;;19.25;100.00;100078.84;3054353;19;1312;-49
2022/07/13 05:26:16;;;;;;;;;;;;;;;19.27;100.00;100093.91;3053835;19;1214;-48
2022/07/13 05:27:21;;;;;;;;;;;;;;;19.31;100.00;100091.75;3054288;19;1150;-48
2022/07/13 05:28:23;;;;;;;;;;;;;;;19.20;100.00;100081.19;3054082;19;1306;-49